Oliverea, New York
Current Conditions -  °F | °C
As of 11:35 AM on Friday 31 Oct 2014 (Local Time) from KMSV Reporting Station
Clear Clear  
Wind Chill: 38°   Ceiling: Unl
Heat Index: 43°   Visibility: 10mi
Dew Point: 34°   Wind: 8mph
Humidity: 70%   Direction: 90°E
Pressure: 29.99"   Gusts: NA
Location:  42.1356°N, 74.4393°W
Report Text: KMSV 311535Z AUTO 09007KT 10SM CLR 06/01 A2999 RMK AO1
Loading
Personal Weather Stations






























Interactive Weather Map
Tropical Storm Tracking
New forecast layout! Learn more

10-Day Weather Forecast

Advertisements
Track Severe Weather on mobile